sensor_id;sensor_type;location;lat;lon;timestamp;temperature;humidity
33271;DHT22;53180;51.344;6.152;2022-08-30T00:02:25;18.20;67.90
33271;DHT22;53180;51.344;6.152;2022-08-30T00:04:54;18.20;68.10
33271;DHT22;53180;51.344;6.152;2022-08-30T00:07:23;18.20;68.40
33271;DHT22;53180;51.344;6.152;2022-08-30T00:09:51;18.20;68.30
33271;DHT22;53180;51.344;6.152;2022-08-30T00:12:19;18.10;68.50
33271;DHT22;53180;51.344;6.152;2022-08-30T00:14:48;18.10;68.60
33271;DHT22;53180;51.344;6.152;2022-08-30T00:17:16;18.10;69.00
33271;DHT22;53180;51.344;6.152;2022-08-30T00:19:47;18.10;69.20
33271;DHT22;53180;51.344;6.152;2022-08-30T00:22:15;18.00;69.30
33271;DHT22;53180;51.344;6.152;2022-08-30T00:24:43;18.00;69.60
33271;DHT22;53180;51.344;6.152;2022-08-30T00:27:11;18.00;69.80
33271;DHT22;53180;51.344;6.152;2022-08-30T00:29:39;18.00;69.90
33271;DHT22;53180;51.344;6.152;2022-08-30T00:32:08;18.00;70.20
33271;DHT22;53180;51.344;6.152;2022-08-30T00:34:37;18.00;70.20
33271;DHT22;53180;51.344;6.152;2022-08-30T00:37:06;18.00;70.50
33271;DHT22;53180;51.344;6.152;2022-08-30T00:39:34;18.00;70.60
33271;DHT22;53180;51.344;6.152;2022-08-30T00:42:03;17.90;70.80
33271;DHT22;53180;51.344;6.152;2022-08-30T00:44:32;18.00;71.10
33271;DHT22;53180;51.344;6.152;2022-08-30T00:47:00;18.00;70.70
33271;DHT22;53180;51.344;6.152;2022-08-30T00:49:29;18.00;71.10
33271;DHT22;53180;51.344;6.152;2022-08-30T00:51:58;18.00;71.30
33271;DHT22;53180;51.344;6.152;2022-08-30T00:54:29;18.00;71.30
33271;DHT22;53180;51.344;6.152;2022-08-30T00:56:58;18.00;70.80
33271;DHT22;53180;51.344;6.152;2022-08-30T00:59:27;18.00;71.90
33271;DHT22;53180;51.344;6.152;2022-08-30T01:01:55;18.00;71.60
33271;DHT22;53180;51.344;6.152;2022-08-30T01:04:25;18.00;71.90
33271;DHT22;53180;51.344;6.152;2022-08-30T01:06:54;18.00;71.50
33271;DHT22;53180;51.344;6.152;2022-08-30T01:09:23;18.00;71.70
33271;DHT22;53180;51.344;6.152;2022-08-30T01:11:53;18.00;71.60
33271;DHT22;53180;51.344;6.152;2022-08-30T01:14:22;18.00;71.50
33271;DHT22;53180;51.344;6.152;2022-08-30T01:16:54;18.00;71.50
33271;DHT22;53180;51.344;6.152;2022-08-30T01:19:30;18.00;71.70
33271;DHT22;53180;51.344;6.152;2022-08-30T01:22:07;18.00;72.00
33271;DHT22;53180;51.344;6.152;2022-08-30T01:24:45;18.00;72.10
33271;DHT22;53180;51.344;6.152;2022-08-30T01:27:14;18.00;72.50
33271;DHT22;53180;51.344;6.152;2022-08-30T01:29:42;17.90;72.40
33271;DHT22;53180;51.344;6.152;2022-08-30T01:32:15;17.90;72.40
33271;DHT22;53180;51.344;6.152;2022-08-30T01:34:47;17.90;72.60
33271;DHT22;53180;51.344;6.152;2022-08-30T01:37:15;17.90;72.60
33271;DHT22;53180;51.344;6.152;2022-08-30T01:39:46;17.90;73.30
33271;DHT22;53180;51.344;6.152;2022-08-30T01:42:16;17.80;73.30
33271;DHT22;53180;51.344;6.152;2022-08-30T01:44:45;17.80;73.00
33271;DHT22;53180;51.344;6.152;2022-08-30T01:47:15;17.80;72.90
33271;DHT22;53180;51.344;6.152;2022-08-30T01:49:45;17.80;73.10
33271;DHT22;53180;51.344;6.152;2022-08-30T01:52:14;17.80;73.60
33271;DHT22;53180;51.344;6.152;2022-08-30T01:54:44;17.80;73.40
33271;DHT22;53180;51.344;6.152;2022-08-30T01:57:16;17.80;73.70
33271;DHT22;53180;51.344;6.152;2022-08-30T01:59:47;17.80;73.40
33271;DHT22;53180;51.344;6.152;2022-08-30T02:02:17;17.80;73.20
33271;DHT22;53180;51.344;6.152;2022-08-30T02:04:49;17.80;73.30
33271;DHT22;53180;51.344;6.152;2022-08-30T02:07:17;17.80;73.80
33271;DHT22;53180;51.344;6.152;2022-08-30T02:09:47;17.80;73.80
33271;DHT22;53180;51.344;6.152;2022-08-30T02:12:17;17.80;73.70
33271;DHT22;53180;51.344;6.152;2022-08-30T02:14:45;17.80;73.80
33271;DHT22;53180;51.344;6.152;2022-08-30T02:17:14;17.80;74.00
33271;DHT22;53180;51.344;6.152;2022-08-30T02:19:45;17.70;74.20
33271;DHT22;53180;51.344;6.152;2022-08-30T02:22:13;17.70;74.30
33271;DHT22;53180;51.344;6.152;2022-08-30T02:24:42;17.80;74.50
33271;DHT22;53180;51.344;6.152;2022-08-30T02:27:11;17.70;74.40
33271;DHT22;53180;51.344;6.152;2022-08-30T02:29:40;17.70;74.60
33271;DHT22;53180;51.344;6.152;2022-08-30T02:32:08;17.70;74.40
33271;DHT22;53180;51.344;6.152;2022-08-30T02:34:36;17.70;74.40
33271;DHT22;53180;51.344;6.152;2022-08-30T02:37:04;17.70;74.80
33271;DHT22;53180;51.344;6.152;2022-08-30T02:39:33;17.70;74.60
33271;DHT22;53180;51.344;6.152;2022-08-30T02:42:03;17.70;74.90
33271;DHT22;53180;51.344;6.152;2022-08-30T02:44:33;17.70;74.60
33271;DHT22;53180;51.344;6.152;2022-08-30T02:47:01;17.60;74.70
33271;DHT22;53180;51.344;6.152;2022-08-30T02:49:29;17.60;74.60
33271;DHT22;53180;51.344;6.152;2022-08-30T02:52:01;17.50;74.60
33271;DHT22;53180;51.344;6.152;2022-08-30T02:54:30;17.50;74.40
33271;DHT22;53180;51.344;6.152;2022-08-30T02:56:59;17.50;75.00
33271;DHT22;53180;51.344;6.152;2022-08-30T02:59:32;17.50;74.90
33271;DHT22;53180;51.344;6.152;2022-08-30T03:02:06;17.50;75.20
33271;DHT22;53180;51.344;6.152;2022-08-30T03:04:34;17.40;75.40
33271;DHT22;53180;51.344;6.152;2022-08-30T03:07:03;17.40;75.40
33271;DHT22;53180;51.344;6.152;2022-08-30T03:09:31;17.40;75.30
33271;DHT22;53180;51.344;6.152;2022-08-30T03:11:59;17.40;75.70
33271;DHT22;53180;51.344;6.152;2022-08-30T03:14:28;17.40;75.80
33271;DHT22;53180;51.344;6.152;2022-08-30T03:16:58;17.30;75.80
33271;DHT22;53180;51.344;6.152;2022-08-30T03:19:27;17.30;75.60
33271;DHT22;53180;51.344;6.152;2022-08-30T03:21:55;17.30;75.80
33271;DHT22;53180;51.344;6.152;2022-08-30T03:24:24;17.30;75.80
33271;DHT22;53180;51.344;6.152;2022-08-30T03:26:52;17.20;76.30
33271;DHT22;53180;51.344;6.152;2022-08-30T03:29:20;17.20;76.30
33271;DHT22;53180;51.344;6.152;2022-08-30T03:31:49;17.20;76.20
33271;DHT22;53180;51.344;6.152;2022-08-30T03:34:21;17.20;76.60
33271;DHT22;53180;51.344;6.152;2022-08-30T03:36:51;17.10;76.30
33271;DHT22;53180;51.344;6.152;2022-08-30T03:39:21;17.10;76.60
33271;DHT22;53180;51.344;6.152;2022-08-30T03:41:50;17.10;76.70
33271;DHT22;53180;51.344;6.152;2022-08-30T03:44:19;17.10;76.60
33271;DHT22;53180;51.344;6.152;2022-08-30T03:46:48;17.10;76.80
33271;DHT22;53180;51.344;6.152;2022-08-30T03:49:18;17.20;76.60
33271;DHT22;53180;51.344;6.152;2022-08-30T03:51:47;17.10;76.80
33271;DHT22;53180;51.344;6.152;2022-08-30T03:54:16;17.10;76.90
33271;DHT22;53180;51.344;6.152;2022-08-30T03:56:44;17.10;76.90
33271;DHT22;53180;51.344;6.152;2022-08-30T03:59:13;17.10;76.90
33271;DHT22;53180;51.344;6.152;2022-08-30T04:01:41;17.10;77.10
33271;DHT22;53180;51.344;6.152;2022-08-30T04:04:11;17.10;76.90
33271;DHT22;53180;51.344;6.152;2022-08-30T04:06:47;17.10;77.00
33271;DHT22;53180;51.344;6.152;2022-08-30T04:09:16;17.10;76.90
33271;DHT22;53180;51.344;6.152;2022-08-30T04:11:45;17.00;77.20
33271;DHT22;53180;51.344;6.152;2022-08-30T04:14:14;17.10;77.10
33271;DHT22;53180;51.344;6.152;2022-08-30T04:16:42;17.00;77.10
33271;DHT22;53180;51.344;6.152;2022-08-30T04:19:10;17.00;77.30
33271;DHT22;53180;51.344;6.152;2022-08-30T04:21:39;17.00;77.30
33271;DHT22;53180;51.344;6.152;2022-08-30T04:24:10;17.00;77.40
33271;DHT22;53180;51.344;6.152;2022-08-30T04:26:38;17.00;77.20
33271;DHT22;53180;51.344;6.152;2022-08-30T04:29:07;17.00;77.50
33271;DHT22;53180;51.344;6.152;2022-08-30T04:31:37;17.00;77.30
33271;DHT22;53180;51.344;6.152;2022-08-30T04:34:05;17.00;77.50
33271;DHT22;53180;51.344;6.152;2022-08-30T04:36:33;17.00;77.70
33271;DHT22;53180;51.344;6.152;2022-08-30T04:39:02;16.90;77.50
33271;DHT22;53180;51.344;6.152;2022-08-30T04:41:32;17.00;77.80
33271;DHT22;53180;51.344;6.152;2022-08-30T04:44:01;16.90;77.50
33271;DHT22;53180;51.344;6.152;2022-08-30T04:46:29;16.90;77.60
33271;DHT22;53180;51.344;6.152;2022-08-30T04:48:58;16.90;77.50
33271;DHT22;53180;51.344;6.152;2022-08-30T04:51:26;16.90;77.70
33271;DHT22;53180;51.344;6.152;2022-08-30T04:53:54;16.90;77.60
33271;DHT22;53180;51.344;6.152;2022-08-30T04:56:23;16.80;78.10
33271;DHT22;53180;51.344;6.152;2022-08-30T04:58:54;16.80;77.90
33271;DHT22;53180;51.344;6.152;2022-08-30T05:01:25;16.80;78.10
33271;DHT22;53180;51.344;6.152;2022-08-30T05:03:56;16.80;78.10
33271;DHT22;53180;51.344;6.152;2022-08-30T05:06:27;16.80;78.20
33271;DHT22;53180;51.344;6.152;2022-08-30T05:08:56;16.80;77.90
33271;DHT22;53180;51.344;6.152;2022-08-30T05:11:27;16.80;78.30
33271;DHT22;53180;51.344;6.152;2022-08-30T05:13:57;16.80;78.60
33271;DHT22;53180;51.344;6.152;2022-08-30T05:16:25;16.80;78.40
33271;DHT22;53180;51.344;6.152;2022-08-30T05:18:54;16.80;78.70
33271;DHT22;53180;51.344;6.152;2022-08-30T05:21:24;16.80;78.60
33271;DHT22;53180;51.344;6.152;2022-08-30T05:23:53;16.80;78.50
33271;DHT22;53180;51.344;6.152;2022-08-30T05:26:28;16.80;78.40
33271;DHT22;53180;51.344;6.152;2022-08-30T05:28:58;16.80;78.70
33271;DHT22;53180;51.344;6.152;2022-08-30T05:31:28;16.80;78.80
33271;DHT22;53180;51.344;6.152;2022-08-30T05:33:58;16.80;78.50
33271;DHT22;53180;51.344;6.152;2022-08-30T05:36:30;16.80;78.70
33271;DHT22;53180;51.344;6.152;2022-08-30T05:38:59;16.90;78.90
33271;DHT22;53180;51.344;6.152;2022-08-30T05:41:31;16.90;78.70
33271;DHT22;53180;51.344;6.152;2022-08-30T05:44:02;17.00;78.80
33271;DHT22;53180;51.344;6.152;2022-08-30T05:46:31;17.00;78.50
33271;DHT22;53180;51.344;6.152;2022-08-30T05:49:06;17.00;78.50
33271;DHT22;53180;51.344;6.152;2022-08-30T05:51:36;17.10;78.50
33271;DHT22;53180;51.344;6.152;2022-08-30T05:54:09;17.00;78.30
33271;DHT22;53180;51.344;6.152;2022-08-30T05:56:39;17.00;78.40
33271;DHT22;53180;51.344;6.152;2022-08-30T05:59:10;17.10;78.50
33271;DHT22;53180;51.344;6.152;2022-08-30T06:01:40;17.10;78.50
33271;DHT22;53180;51.344;6.152;2022-08-30T06:04:10;17.10;78.30
33271;DHT22;53180;51.344;6.152;2022-08-30T06:06:40;17.10;78.20
33271;DHT22;53180;51.344;6.152;2022-08-30T06:09:11;17.20;78.20
33271;DHT22;53180;51.344;6.152;2022-08-30T06:11:41;17.20;78.30
33271;DHT22;53180;51.344;6.152;2022-08-30T06:14:11;17.20;78.20
33271;DHT22;53180;51.344;6.152;2022-08-30T06:16:40;17.20;78.30
33271;DHT22;53180;51.344;6.152;2022-08-30T06:19:12;17.30;78.10
33271;DHT22;53180;51.344;6.152;2022-08-30T06:21:42;17.40;78.20
33271;DHT22;53180;51.344;6.152;2022-08-30T06:24:11;17.40;77.90
33271;DHT22;53180;51.344;6.152;2022-08-30T06:26:41;17.60;77.70
33271;DHT22;53180;51.344;6.152;2022-08-30T06:29:17;17.60;77.00
33271;DHT22;53180;51.344;6.152;2022-08-30T06:31:46;17.70;77.10
33271;DHT22;53180;51.344;6.152;2022-08-30T06:34:16;17.80;77.20
33271;DHT22;53180;51.344;6.152;2022-08-30T06:36:44;17.80;76.90
33271;DHT22;53180;51.344;6.152;2022-08-30T06:39:12;17.90;76.80
33271;DHT22;53180;51.344;6.152;2022-08-30T06:41:41;18.00;77.00
33271;DHT22;53180;51.344;6.152;2022-08-30T06:44:09;18.20;76.50
33271;DHT22;53180;51.344;6.152;2022-08-30T06:46:39;18.40;75.60
33271;DHT22;53180;51.344;6.152;2022-08-30T06:49:07;18.50;75.20
33271;DHT22;53180;51.344;6.152;2022-08-30T06:51:38;18.60;74.70
33271;DHT22;53180;51.344;6.152;2022-08-30T06:54:11;18.70;74.40
33271;DHT22;53180;51.344;6.152;2022-08-30T06:56:40;18.80;74.00
33271;DHT22;53180;51.344;6.152;2022-08-30T06:59:25;19.00;74.20
33271;DHT22;53180;51.344;6.152;2022-08-30T07:01:55;19.10;73.60
33271;DHT22;53180;51.344;6.152;2022-08-30T07:04:24;19.20;73.20
33271;DHT22;53180;51.344;6.152;2022-08-30T07:06:52;19.30;72.80
33271;DHT22;53180;51.344;6.152;2022-08-30T07:09:21;19.40;72.50
33271;DHT22;53180;51.344;6.152;2022-08-30T07:11:49;19.50;72.20
33271;DHT22;53180;51.344;6.152;2022-08-30T07:14:18;19.70;71.30
33271;DHT22;53180;51.344;6.152;2022-08-30T07:16:47;19.60;71.10
33271;DHT22;53180;51.344;6.152;2022-08-30T07:19:19;19.60;71.20
33271;DHT22;53180;51.344;6.152;2022-08-30T07:21:48;19.70;71.10
33271;DHT22;53180;51.344;6.152;2022-08-30T07:24:18;19.80;70.80
33271;DHT22;53180;51.344;6.152;2022-08-30T07:26:49;19.80;71.00
33271;DHT22;53180;51.344;6.152;2022-08-30T07:29:18;19.90;70.10
33271;DHT22;53180;51.344;6.152;2022-08-30T07:31:47;20.00;70.30
33271;DHT22;53180;51.344;6.152;2022-08-30T07:34:16;20.00;70.10
33271;DHT22;53180;51.344;6.152;2022-08-30T07:36:49;20.20;70.60
33271;DHT22;53180;51.344;6.152;2022-08-30T07:39:18;20.20;70.00
33271;DHT22;53180;51.344;6.152;2022-08-30T07:41:46;20.30;69.80
33271;DHT22;53180;51.344;6.152;2022-08-30T07:44:16;20.40;69.50
33271;DHT22;53180;51.344;6.152;2022-08-30T07:46:48;20.40;69.20
33271;DHT22;53180;51.344;6.152;2022-08-30T07:49:17;20.40;69.50
33271;DHT22;53180;51.344;6.152;2022-08-30T07:51:45;20.40;69.00
33271;DHT22;53180;51.344;6.152;2022-08-30T07:54:15;20.40;68.60
33271;DHT22;53180;51.344;6.152;2022-08-30T07:56:44;20.40;68.80
33271;DHT22;53180;51.344;6.152;2022-08-30T07:59:12;20.40;69.10
33271;DHT22;53180;51.344;6.152;2022-08-30T08:01:40;20.50;68.70
33271;DHT22;53180;51.344;6.152;2022-08-30T08:04:09;20.50;68.70
33271;DHT22;53180;51.344;6.152;2022-08-30T08:06:38;20.70;68.20
33271;DHT22;53180;51.344;6.152;2022-08-30T08:09:07;20.80;68.70
33271;DHT22;53180;51.344;6.152;2022-08-30T08:11:37;20.90;67.70
33271;DHT22;53180;51.344;6.152;2022-08-30T08:14:07;21.00;67.90
33271;DHT22;53180;51.344;6.152;2022-08-30T08:16:36;21.00;68.00
33271;DHT22;53180;51.344;6.152;2022-08-30T08:19:05;21.10;67.00
33271;DHT22;53180;51.344;6.152;2022-08-30T08:21:35;21.10;66.30
33271;DHT22;53180;51.344;6.152;2022-08-30T08:24:04;21.20;66.20
33271;DHT22;53180;51.344;6.152;2022-08-30T08:26:34;21.30;66.10
33271;DHT22;53180;51.344;6.152;2022-08-30T08:29:06;21.30;65.70
33271;DHT22;53180;51.344;6.152;2022-08-30T08:31:36;21.20;66.20
33271;DHT22;53180;51.344;6.152;2022-08-30T08:34:04;21.20;65.70
33271;DHT22;53180;51.344;6.152;2022-08-30T08:36:33;21.20;66.60
33271;DHT22;53180;51.344;6.152;2022-08-30T08:39:04;21.30;66.90
33271;DHT22;53180;51.344;6.152;2022-08-30T08:41:39;21.30;66.50
33271;DHT22;53180;51.344;6.152;2022-08-30T08:44:24;21.50;66.30
33271;DHT22;53180;51.344;6.152;2022-08-30T08:47:06;21.70;66.10
33271;DHT22;53180;51.344;6.152;2022-08-30T08:49:41;21.80;65.30
33271;DHT22;53180;51.344;6.152;2022-08-30T08:52:19;22.00;64.50
33271;DHT22;53180;51.344;6.152;2022-08-30T08:55:09;22.10;63.90
33271;DHT22;53180;51.344;6.152;2022-08-30T08:57:40;22.20;63.40
33271;DHT22;53180;51.344;6.152;2022-08-30T09:00:11;22.30;63.50
33271;DHT22;53180;51.344;6.152;2022-08-30T09:02:43;22.40;62.80
33271;DHT22;53180;51.344;6.152;2022-08-30T09:05:17;22.60;62.60
33271;DHT22;53180;51.344;6.152;2022-08-30T09:07:48;22.70;62.50
33271;DHT22;53180;51.344;6.152;2022-08-30T09:10:20;22.90;61.70
33271;DHT22;53180;51.344;6.152;2022-08-30T09:13:09;22.90;60.60
33271;DHT22;53180;51.344;6.152;2022-08-30T09:15:41;23.00;59.90
33271;DHT22;53180;51.344;6.152;2022-08-30T09:18:09;23.00;60.30
33271;DHT22;53180;51.344;6.152;2022-08-30T09:20:47;23.00;59.90
33271;DHT22;53180;51.344;6.152;2022-08-30T09:23:23;23.00;60.10
33271;DHT22;53180;51.344;6.152;2022-08-30T09:25:55;23.20;60.40
33271;DHT22;53180;51.344;6.152;2022-08-30T09:28:27;23.30;59.30
33271;DHT22;53180;51.344;6.152;2022-08-30T09:31:02;23.30;59.30
33271;DHT22;53180;51.344;6.152;2022-08-30T09:33:38;23.40;58.80
33271;DHT22;53180;51.344;6.152;2022-08-30T09:36:13;23.40;57.50
33271;DHT22;53180;51.344;6.152;2022-08-30T09:38:56;23.40;59.10
33271;DHT22;53180;51.344;6.152;2022-08-30T09:41:36;23.60;59.40
33271;DHT22;53180;51.344;6.152;2022-08-30T09:44:10;23.70;57.60
33271;DHT22;53180;51.344;6.152;2022-08-30T09:46:46;23.70;57.90
33271;DHT22;53180;51.344;6.152;2022-08-30T09:49:34;23.90;57.90
33271;DHT22;53180;51.344;6.152;2022-08-30T09:52:21;24.00;56.10
33271;DHT22;53180;51.344;6.152;2022-08-30T09:55:14;23.90;56.70
33271;DHT22;53180;51.344;6.152;2022-08-30T09:57:56;24.10;56.80
33271;DHT22;53180;51.344;6.152;2022-08-30T10:00:32;24.30;55.40
33271;DHT22;53180;51.344;6.152;2022-08-30T10:03:21;24.40;56.70
33271;DHT22;53180;51.344;6.152;2022-08-30T10:06:14;24.60;55.20
33271;DHT22;53180;51.344;6.152;2022-08-30T10:08:50;24.80;55.40
33271;DHT22;53180;51.344;6.152;2022-08-30T10:11:27;24.90;53.50
33271;DHT22;53180;51.344;6.152;2022-08-30T10:14:16;24.90;54.40
33271;DHT22;53180;51.344;6.152;2022-08-30T10:16:59;25.00;53.70
33271;DHT22;53180;51.344;6.152;2022-08-30T10:19:46;25.20;52.80
33271;DHT22;53180;51.344;6.152;2022-08-30T10:22:29;25.30;52.00
33271;DHT22;53180;51.344;6.152;2022-08-30T10:25:04;25.40;52.90
33271;DHT22;53180;51.344;6.152;2022-08-30T10:27:40;25.40;52.60
33271;DHT22;53180;51.344;6.152;2022-08-30T10:30:12;25.60;51.10
33271;DHT22;53180;51.344;6.152;2022-08-30T10:32:43;25.60;52.10
33271;DHT22;53180;51.344;6.152;2022-08-30T10:35:17;25.60;50.80
33271;DHT22;53180;51.344;6.152;2022-08-30T10:37:51;25.50;50.10
33271;DHT22;53180;51.344;6.152;2022-08-30T10:40:25;25.50;51.30
33271;DHT22;53180;51.344;6.152;2022-08-30T10:43:23;25.50;50.70
33271;DHT22;53180;51.344;6.152;2022-08-30T10:45:58;25.40;51.30
33271;DHT22;53180;51.344;6.152;2022-08-30T10:48:35;25.30;49.80
33271;DHT22;53180;51.344;6.152;2022-08-30T10:51:09;25.30;50.30
33271;DHT22;53180;51.344;6.152;2022-08-30T10:53:45;25.30;52.10
33271;DHT22;53180;51.344;6.152;2022-08-30T10:56:17;25.30;50.70
33271;DHT22;53180;51.344;6.152;2022-08-30T10:58:52;25.30;50.40
33271;DHT22;53180;51.344;6.152;2022-08-30T11:01:38;25.40;50.80
33271;DHT22;53180;51.344;6.152;2022-08-30T11:07:43;25.60;50.00
33271;DHT22;53180;51.344;6.152;2022-08-30T11:10:45;25.70;49.20
33271;DHT22;53180;51.344;6.152;2022-08-30T11:13:22;25.90;50.70
33271;DHT22;53180;51.344;6.152;2022-08-30T11:15:57;26.00;49.20
33271;DHT22;53180;51.344;6.152;2022-08-30T11:18:29;26.00;48.20
33271;DHT22;53180;51.344;6.152;2022-08-30T11:21:30;26.00;47.10
33271;DHT22;53180;51.344;6.152;2022-08-30T11:24:17;26.00;47.50
33271;DHT22;53180;51.344;6.152;2022-08-30T11:26:53;26.10;48.30
33271;DHT22;53180;51.344;6.152;2022-08-30T11:29:33;26.20;47.60
33271;DHT22;53180;51.344;6.152;2022-08-30T11:35:38;26.40;46.40
33271;DHT22;53180;51.344;6.152;2022-08-30T11:38:56;26.50;47.00
33271;DHT22;53180;51.344;6.152;2022-08-30T11:41:34;26.70;47.00
33271;DHT22;53180;51.344;6.152;2022-08-30T11:44:27;26.80;45.90
33271;DHT22;53180;51.344;6.152;2022-08-30T11:46:59;26.90;45.90
33271;DHT22;53180;51.344;6.152;2022-08-30T11:49:56;27.00;46.60
33271;DHT22;53180;51.344;6.152;2022-08-30T11:52:52;27.20;45.70
33271;DHT22;53180;51.344;6.152;2022-08-30T11:55:37;27.30;45.10
33271;DHT22;53180;51.344;6.152;2022-08-30T11:58:27;27.30;45.50
33271;DHT22;53180;51.344;6.152;2022-08-30T12:01:33;27.20;44.40
33271;DHT22;53180;51.344;6.152;2022-08-30T12:04:27;27.20;44.80
33271;DHT22;53180;51.344;6.152;2022-08-30T12:07:05;27.10;45.50
33271;DHT22;53180;51.344;6.152;2022-08-30T12:10:02;27.20;44.40
33271;DHT22;53180;51.344;6.152;2022-08-30T12:12:49;27.10;44.10
33271;DHT22;53180;51.344;6.152;2022-08-30T12:15:52;27.00;44.00
33271;DHT22;53180;51.344;6.152;2022-08-30T12:18:37;26.90;45.30
33271;DHT22;53180;51.344;6.152;2022-08-30T12:21:23;26.80;44.30
33271;DHT22;53180;51.344;6.152;2022-08-30T12:24:00;26.70;45.30
33271;DHT22;53180;51.344;6.152;2022-08-30T12:26:33;26.60;45.40
33271;DHT22;53180;51.344;6.152;2022-08-30T12:29:12;26.50;45.70
33271;DHT22;53180;51.344;6.152;2022-08-30T12:31:46;26.40;45.10
33271;DHT22;53180;51.344;6.152;2022-08-30T12:34:22;26.40;45.80
33271;DHT22;53180;51.344;6.152;2022-08-30T12:36:57;26.30;45.90
33271;DHT22;53180;51.344;6.152;2022-08-30T12:39:32;26.30;45.40
33271;DHT22;53180;51.344;6.152;2022-08-30T12:42:14;26.30;45.70
33271;DHT22;53180;51.344;6.152;2022-08-30T12:44:47;26.30;46.00
33271;DHT22;53180;51.344;6.152;2022-08-30T12:47:22;26.30;46.00
33271;DHT22;53180;51.344;6.152;2022-08-30T12:49:53;26.30;46.40
33271;DHT22;53180;51.344;6.152;2022-08-30T12:52:28;26.20;45.10
33271;DHT22;53180;51.344;6.152;2022-08-30T12:55:09;26.10;45.40
33271;DHT22;53180;51.344;6.152;2022-08-30T12:57:56;26.10;45.50
33271;DHT22;53180;51.344;6.152;2022-08-30T13:00:29;26.00;45.70
33271;DHT22;53180;51.344;6.152;2022-08-30T13:03:02;26.10;46.40
33271;DHT22;53180;51.344;6.152;2022-08-30T13:05:51;26.00;45.70
33271;DHT22;53180;51.344;6.152;2022-08-30T13:08:21;26.10;46.10
33271;DHT22;53180;51.344;6.152;2022-08-30T13:10:57;26.10;45.70
33271;DHT22;53180;51.344;6.152;2022-08-30T13:13:37;26.20;45.80
33271;DHT22;53180;51.344;6.152;2022-08-30T13:16:26;26.30;46.10
33271;DHT22;53180;51.344;6.152;2022-08-30T13:19:32;26.30;44.60
33271;DHT22;53180;51.344;6.152;2022-08-30T13:22:02;26.30;45.40
33271;DHT22;53180;51.344;6.152;2022-08-30T13:24:31;26.30;44.70
33271;DHT22;53180;51.344;6.152;2022-08-30T13:27:03;26.40;44.50
33271;DHT22;53180;51.344;6.152;2022-08-30T13:29:35;26.40;44.90
33271;DHT22;53180;51.344;6.152;2022-08-30T13:32:05;26.40;44.30
33271;DHT22;53180;51.344;6.152;2022-08-30T13:34:34;26.30;45.00
33271;DHT22;53180;51.344;6.152;2022-08-30T13:37:03;26.20;45.80
33271;DHT22;53180;51.344;6.152;2022-08-30T13:39:31;26.20;44.80
33271;DHT22;53180;51.344;6.152;2022-08-30T13:42:02;26.30;45.30
33271;DHT22;53180;51.344;6.152;2022-08-30T13:44:50;26.30;45.40
33271;DHT22;53180;51.344;6.152;2022-08-30T13:47:21;26.10;45.00
33271;DHT22;53180;51.344;6.152;2022-08-30T13:50:05;26.00;44.90
33271;DHT22;53180;51.344;6.152;2022-08-30T13:52:35;25.90;45.60
33271;DHT22;53180;51.344;6.152;2022-08-30T13:55:04;25.80;45.40
33271;DHT22;53180;51.344;6.152;2022-08-30T13:57:34;25.80;46.10
33271;DHT22;53180;51.344;6.152;2022-08-30T14:00:23;25.80;45.50
33271;DHT22;53180;51.344;6.152;2022-08-30T14:02:53;25.70;45.30
33271;DHT22;53180;51.344;6.152;2022-08-30T14:05:27;25.80;46.50
33271;DHT22;53180;51.344;6.152;2022-08-30T14:08:18;26.00;45.40
33271;DHT22;53180;51.344;6.152;2022-08-30T14:11:08;26.10;45.70
33271;DHT22;53180;51.344;6.152;2022-08-30T14:13:39;26.20;44.50
33271;DHT22;53180;51.344;6.152;2022-08-30T14:16:29;26.20;44.70
33271;DHT22;53180;51.344;6.152;2022-08-30T14:19:00;26.20;45.10
33271;DHT22;53180;51.344;6.152;2022-08-30T14:21:28;26.30;45.20
33271;DHT22;53180;51.344;6.152;2022-08-30T14:23:58;26.30;44.80
33271;DHT22;53180;51.344;6.152;2022-08-30T14:26:27;26.30;44.70
33271;DHT22;53180;51.344;6.152;2022-08-30T14:28:59;26.30;45.40
33271;DHT22;53180;51.344;6.152;2022-08-30T14:31:28;26.30;44.70
33271;DHT22;53180;51.344;6.152;2022-08-30T14:34:00;26.30;44.70
33271;DHT22;53180;51.344;6.152;2022-08-30T14:36:31;26.30;44.90
33271;DHT22;53180;51.344;6.152;2022-08-30T14:39:01;26.30;44.00
33271;DHT22;53180;51.344;6.152;2022-08-30T14:41:35;26.50;43.90
33271;DHT22;53180;51.344;6.152;2022-08-30T14:44:10;26.50;44.20
33271;DHT22;53180;51.344;6.152;2022-08-30T14:46:39;26.40;43.80
33271;DHT22;53180;51.344;6.152;2022-08-30T14:49:10;26.30;43.70
33271;DHT22;53180;51.344;6.152;2022-08-30T14:51:39;26.30;44.30
33271;DHT22;53180;51.344;6.152;2022-08-30T14:54:08;26.30;44.30
33271;DHT22;53180;51.344;6.152;2022-08-30T14:56:38;26.30;44.40
33271;DHT22;53180;51.344;6.152;2022-08-30T14:59:08;26.20;44.10
33271;DHT22;53180;51.344;6.152;2022-08-30T15:01:39;26.20;44.10
33271;DHT22;53180;51.344;6.152;2022-08-30T15:04:10;26.20;43.90
33271;DHT22;53180;51.344;6.152;2022-08-30T15:06:41;26.10;44.50
33271;DHT22;53180;51.344;6.152;2022-08-30T15:09:13;26.00;44.50
33271;DHT22;53180;51.344;6.152;2022-08-30T15:11:49;26.00;44.60
33271;DHT22;53180;51.344;6.152;2022-08-30T15:14:19;25.90;44.90
33271;DHT22;53180;51.344;6.152;2022-08-30T15:16:47;25.80;44.90
33271;DHT22;53180;51.344;6.152;2022-08-30T15:19:17;25.80;44.90
33271;DHT22;53180;51.344;6.152;2022-08-30T15:21:46;25.70;45.10
33271;DHT22;53180;51.344;6.152;2022-08-30T15:24:17;25.70;45.30
33271;DHT22;53180;51.344;6.152;2022-08-30T15:26:55;25.60;45.30
33271;DHT22;53180;51.344;6.152;2022-08-30T15:29:26;25.60;45.30
33271;DHT22;53180;51.344;6.152;2022-08-30T15:31:57;25.60;45.40
33271;DHT22;53180;51.344;6.152;2022-08-30T15:34:28;25.60;45.40
33271;DHT22;53180;51.344;6.152;2022-08-30T15:36:57;25.50;45.30
33271;DHT22;53180;51.344;6.152;2022-08-30T15:39:25;25.60;45.30
33271;DHT22;53180;51.344;6.152;2022-08-30T15:41:55;25.60;45.40
33271;DHT22;53180;51.344;6.152;2022-08-30T15:44:27;25.60;45.10
33271;DHT22;53180;51.344;6.152;2022-08-30T15:46:56;25.60;45.10
33271;DHT22;53180;51.344;6.152;2022-08-30T15:49:26;25.50;44.40
33271;DHT22;53180;51.344;6.152;2022-08-30T15:51:59;25.50;45.40
33271;DHT22;53180;51.344;6.152;2022-08-30T15:54:28;25.40;45.40
33271;DHT22;53180;51.344;6.152;2022-08-30T15:56:56;25.40;45.10
33271;DHT22;53180;51.344;6.152;2022-08-30T15:59:26;25.30;44.90
33271;DHT22;53180;51.344;6.152;2022-08-30T16:01:55;25.30;45.70
33271;DHT22;53180;51.344;6.152;2022-08-30T16:04:25;25.30;45.80
33271;DHT22;53180;51.344;6.152;2022-08-30T16:06:54;25.30;45.60
33271;DHT22;53180;51.344;6.152;2022-08-30T16:09:23;25.20;45.50
33271;DHT22;53180;51.344;6.152;2022-08-30T16:11:58;25.10;45.70
33271;DHT22;53180;51.344;6.152;2022-08-30T16:14:27;25.10;45.50